Anzoras — EAZC — position and weather

sailwx.info

Track history (hours):
 
Tides and Currents Weather Stations Pressure Air Temp Water Temp Dewpoint Dewpoint Depression Visibility Wind Speed Wind Dir Waves Ship Positions

Anzoras

Last reported at 2017-Oct-22 02:36 UTC. Time now 2017-Oct-22 04:55 UTC.
Position N 43°06' E 008°42'.

Length 100 m; draft 6.7 m.

Type: Cargo ship. MMSI: 224376000.

Date/timePositionNaut miles runAvg speedWind from/ knotsBaromVisibWave heightAir tempDewpointWater temp
2017-Oct-22 02:36N 43°06' E 008°42'1311.8
2017-Oct-22 01:32N 43°04' E 008°24'211.5
2017-Oct-22 01:23N 43°04' E 008°22'4611.5
2017-Oct-21 21:20N 42°59' E 007°19'411.4
2017-Oct-21 20:59N 42°58' E 007°13'6910.3
2017-Oct-21 14:17N 42°59' E 005°39'1010.5
2017-Oct-21 13:18N 43°04' E 005°26'610.6
2017-Oct-21 12:45N 43°06' E 005°19'310.7
2017-Oct-21 12:30N 43°07' E 005°15'510.8
2017-Oct-21 12:00N 43°09' E 005°09'511.0
2017-Oct-21 11:31N 43°12' E 005°02'611.0
2017-Oct-21 11:00N 43°17' E 004°59'611.1
2017-Oct-21 10:30N 43°22' E 004°57'4 8.4
2017-Oct-21 10:00N 43°25' E 004°53'0 0.4
2017-Oct-21 09:30N 43°26' E 004°53'0 0.0
2017-Oct-21 08:57N 43°26' E 004°53'0 0.0
2017-Oct-21 08:15N 43°26' E 004°53'0 0.0
2017-Oct-21 07:57N 43°26' E 004°53'0 0.0
2017-Oct-21 07:30N 43°26' E 004°53'0 0.0
2017-Oct-21 07:00N 43°26' E 004°53'0 0.0
2017-Oct-21 06:30N 43°26' E 004°53'0 0.0
2017-Oct-21 06:00N 43°26' E 004°53'0 0.0
2017-Oct-21 05:30N 43°26' E 004°53'0 0.0
2017-Oct-21 05:00N 43°26' E 004°53'0 0.0
2017-Oct-21 04:30N 43°26' E 004°53'0 0.0
2017-Oct-21 04:00N 43°26' E 004°53'0 0.0
2017-Oct-21 02:30N 43°26' E 004°53'0 0.0
2017-Oct-21 02:00N 43°26' E 004°53'0 0.0
2017-Oct-21 01:30N 43°26' E 004°53'0 0.0
2017-Oct-21 00:57N 43°26' E 004°53'0 0.0
2017-Oct-21 00:24N 43°26' E 004°53'0 0.0
2017-Oct-21 00:00N 43°26' E 004°53'0 0.0
2017-Oct-20 23:30N 43°26' E 004°53'0 0.0
2017-Oct-20 23:00N 43°26' E 004°53'0 0.0
2017-Oct-20 22:30N 43°26' E 004°53'0 0.0
2017-Oct-20 22:00N 43°26' E 004°53'0 0.0
2017-Oct-20 21:30N 43°26' E 004°53'0 0.0
2017-Oct-20 21:00N 43°26' E 004°53'0 0.0
2017-Oct-20 20:30N 43°26' E 004°53'0 0.0
2017-Oct-20 20:00N 43°26' E 004°53'0 0.0
2017-Oct-20 19:30N 43°26' E 004°53'0 0.0
2017-Oct-20 19:00N 43°26' E 004°53'0 0.0
2017-Oct-20 18:30N 43°26' E 004°53'0 0.0
2017-Oct-20 18:00N 43°26' E 004°53'0 0.0
2017-Oct-20 17:30N 43°26' E 004°53'0 0.0
2017-Oct-20 17:00N 43°26' E 004°53'0 0.0
2017-Oct-20 16:30N 43°26' E 004°53'0 0.0
2017-Oct-20 15:57N 43°26' E 004°53'0 0.0
2017-Oct-20 15:30N 43°26' E 004°53'0 0.0
2017-Oct-20 15:00N 43°26' E 004°53'0 0.0
2017-Oct-20 14:30N 43°26' E 004°53'0 0.0
2017-Oct-20 13:30N 43°26' E 004°53'0 0.0
2017-Oct-20 13:00N 43°26' E 004°53'0 0.0
2017-Oct-20 12:30N 43°26' E 004°53'2 3.2
2017-Oct-20 12:00N 43°24' E 004°54'5 9.8
2017-Oct-20 11:30N 43°21' E 004°59'5 9.1
2017-Oct-20 11:00N 43°17' E 005°00'611.5
2017-Oct-20 10:30N 43°11' E 005°02'611.2
2017-Oct-20 10:00N 43°07' E 004°57'510.5
2017-Oct-20 09:31N 43°03' E 004°52'510.3
2017-Oct-20 09:00N 42°59' E 004°47'510.2
2017-Oct-20 08:31N 42°55' E 004°43'510.1
2017-Oct-20 08:01N 42°51' E 004°38'510.1
2017-Oct-20 07:30N 42°47' E 004°34'163 5.0
2017-Oct-18 23:05N 40°21' E 002°57'111.3
2017-Oct-18 22:59N 40°20' E 002°58'  
2017-Oct-14 17:01N 38°44' E 000°29'011.5
2017-Oct-14 17:00N 38°44' E 000°29'711.0
2017-Oct-14 16:24N 38°38' E 000°24'410.9
2017-Oct-14 16:00N 38°35' E 000°21'510.8
2017-Oct-14 15:30N 38°30' E 000°17'510.6
2017-Oct-14 15:00N 38°26' E 000°14'710.6
2017-Oct-14 14:19N 38°20' E 000°09'310.6
2017-Oct-14 14:00N 38°17' E 000°06'3910.3
2017-Oct-14 10:11N 37°44' W 000°22'210.3
2017-Oct-14 10:00N 37°43' W 000°23'510.4
2017-Oct-14 09:31N 37°38' W 000°27'510.4
2017-Oct-14 09:01N 37°34' W 000°30'1010.5
2017-Oct-14 08:03N 37°27' W 000°39'110.8
2017-Oct-14 07:56N 37°26' W 000°41'510.7
2017-Oct-14 07:29N 37°23' W 000°45'610.6
2017-Oct-14 06:53N 37°19' W 000°51'410.5
2017-Oct-14 06:28N 37°16' W 000°55'227 5.8
2017-Oct-12 15:08N 36°09' W 005°26'6 8.8
2017-Oct-12 14:26N 36°03' W 005°23'511.4
2017-Oct-12 14:01N 35°59' W 005°25'6610.4
2017-Oct-12 07:43N 35°26' W 006°35'910.6
2017-Oct-12 06:52N 35°20' W 006°43'410.8
2017-Oct-12 06:30N 35°17' W 006°47'711.1
2017-Oct-12 05:54N 35°13' W 006°53'411.0
2017-Oct-12 05:30N 35°10' W 006°57'610.9
2017-Oct-12 04:59N 35°06' W 007°02'911.2
2017-Oct-12 04:11N 35°01' W 007°11'311.4
2017-Oct-12 03:55N 34°60' W 007°14'510.8
2017-Oct-12 03:30N 34°57' W 007°19'  
Track history (hours):
 
Tides and Currents Weather Stations Pressure Air Temp Water Temp Dewpoint Dewpoint Depression Visibility Wind Speed Wind Dir Waves Ship Positions

Anzoras

Last reported at 2017-Oct-22 02:36 UTC. Time now 2017-Oct-22 04:55 UTC.
Position N 43°06' E 008°42'.

Length 100 m; draft 6.7 m.

Type: Cargo ship. MMSI: 224376000.

Date/timePositionNaut miles runAvg speedWind from/ knotsBaromVisibWave heightAir tempDewpointWater temp
2017-Oct-22 02:36N 43°06' E 008°42'1311.8
2017-Oct-22 01:32N 43°04' E 008°24'211.5
2017-Oct-22 01:23N 43°04' E 008°22'4611.5
2017-Oct-21 21:20N 42°59' E 007°19'411.4
2017-Oct-21 20:59N 42°58' E 007°13'6910.3
2017-Oct-21 14:17N 42°59' E 005°39'1010.5
2017-Oct-21 13:18N 43°04' E 005°26'610.6
2017-Oct-21 12:45N 43°06' E 005°19'310.7
2017-Oct-21 12:30N 43°07' E 005°15'510.8
2017-Oct-21 12:00N 43°09' E 005°09'511.0
2017-Oct-21 11:31N 43°12' E 005°02'611.0
2017-Oct-21 11:00N 43°17' E 004°59'611.1
2017-Oct-21 10:30N 43°22' E 004°57'4 8.4
2017-Oct-21 10:00N 43°25' E 004°53'0 0.4
2017-Oct-21 09:30N 43°26' E 004°53'0 0.0
2017-Oct-21 08:57N 43°26' E 004°53'0 0.0
2017-Oct-21 08:15N 43°26' E 004°53'0 0.0
2017-Oct-21 07:57N 43°26' E 004°53'0 0.0
2017-Oct-21 07:30N 43°26' E 004°53'0 0.0
2017-Oct-21 07:00N 43°26' E 004°53'0 0.0
2017-Oct-21 06:30N 43°26' E 004°53'0 0.0
2017-Oct-21 06:00N 43°26' E 004°53'0 0.0
2017-Oct-21 05:30N 43°26' E 004°53'0 0.0
2017-Oct-21 05:00N 43°26' E 004°53'0 0.0
2017-Oct-21 04:30N 43°26' E 004°53'0 0.0
2017-Oct-21 04:00N 43°26' E 004°53'0 0.0
2017-Oct-21 02:30N 43°26' E 004°53'0 0.0
2017-Oct-21 02:00N 43°26' E 004°53'0 0.0
2017-Oct-21 01:30N 43°26' E 004°53'0 0.0
2017-Oct-21 00:57N 43°26' E 004°53'0 0.0
2017-Oct-21 00:24N 43°26' E 004°53'0 0.0
2017-Oct-21 00:00N 43°26' E 004°53'0 0.0
2017-Oct-20 23:30N 43°26' E 004°53'0 0.0
2017-Oct-20 23:00N 43°26' E 004°53'0 0.0
2017-Oct-20 22:30N 43°26' E 004°53'0 0.0
2017-Oct-20 22:00N 43°26' E 004°53'0 0.0
2017-Oct-20 21:30N 43°26' E 004°53'0 0.0
2017-Oct-20 21:00N 43°26' E 004°53'0 0.0
2017-Oct-20 20:30N 43°26' E 004°53'0 0.0
2017-Oct-20 20:00N 43°26' E 004°53'0 0.0
2017-Oct-20 19:30N 43°26' E 004°53'0 0.0
2017-Oct-20 19:00N 43°26' E 004°53'0 0.0
2017-Oct-20 18:30N 43°26' E 004°53'0 0.0
2017-Oct-20 18:00N 43°26' E 004°53'0 0.0
2017-Oct-20 17:30N 43°26' E 004°53'0 0.0
2017-Oct-20 17:00N 43°26' E 004°53'0 0.0
2017-Oct-20 16:30N 43°26' E 004°53'0 0.0
2017-Oct-20 15:57N 43°26' E 004°53'0 0.0
2017-Oct-20 15:30N 43°26' E 004°53'0 0.0
2017-Oct-20 15:00N 43°26' E 004°53'0 0.0
2017-Oct-20 14:30N 43°26' E 004°53'0 0.0
2017-Oct-20 13:30N 43°26' E 004°53'0 0.0
2017-Oct-20 13:00N 43°26' E 004°53'0 0.0
2017-Oct-20 12:30N 43°26' E 004°53'2 3.2
2017-Oct-20 12:00N 43°24' E 004°54'5 9.8
2017-Oct-20 11:30N 43°21' E 004°59'5 9.1
2017-Oct-20 11:00N 43°17' E 005°00'611.5
2017-Oct-20 10:30N 43°11' E 005°02'611.2
2017-Oct-20 10:00N 43°07' E 004°57'510.5
2017-Oct-20 09:31N 43°03' E 004°52'510.3
2017-Oct-20 09:00N 42°59' E 004°47'510.2
2017-Oct-20 08:31N 42°55' E 004°43'510.1
2017-Oct-20 08:01N 42°51' E 004°38'510.1
2017-Oct-20 07:30N 42°47' E 004°34'163 5.0
2017-Oct-18 23:05N 40°21' E 002°57'111.3
2017-Oct-18 22:59N 40°20' E 002°58'  
2017-Oct-14 17:01N 38°44' E 000°29'011.5
2017-Oct-14 17:00N 38°44' E 000°29'711.0
2017-Oct-14 16:24N 38°38' E 000°24'410.9
2017-Oct-14 16:00N 38°35' E 000°21'510.8
2017-Oct-14 15:30N 38°30' E 000°17'510.6
2017-Oct-14 15:00N 38°26' E 000°14'710.6
2017-Oct-14 14:19N 38°20' E 000°09'310.6
2017-Oct-14 14:00N 38°17' E 000°06'3910.3
2017-Oct-14 10:11N 37°44' W 000°22'210.3
2017-Oct-14 10:00N 37°43' W 000°23'510.4
2017-Oct-14 09:31N 37°38' W 000°27'510.4
2017-Oct-14 09:01N 37°34' W 000°30'1010.5
2017-Oct-14 08:03N 37°27' W 000°39'110.8
2017-Oct-14 07:56N 37°26' W 000°41'510.7
2017-Oct-14 07:29N 37°23' W 000°45'610.6
2017-Oct-14 06:53N 37°19' W 000°51'410.5
2017-Oct-14 06:28N 37°16' W 000°55'227 5.8
2017-Oct-12 15:08N 36°09' W 005°26'6 8.8
2017-Oct-12 14:26N 36°03' W 005°23'511.4
2017-Oct-12 14:01N 35°59' W 005°25'6610.4
2017-Oct-12 07:43N 35°26' W 006°35'910.6
2017-Oct-12 06:52N 35°20' W 006°43'410.8
2017-Oct-12 06:30N 35°17' W 006°47'711.1
2017-Oct-12 05:54N 35°13' W 006°53'411.0
2017-Oct-12 05:30N 35°10' W 006°57'610.9
2017-Oct-12 04:59N 35°06' W 007°02'911.2
2017-Oct-12 04:11N 35°01' W 007°11'311.4
2017-Oct-12 03:55N 34°60' W 007°14'510.8
2017-Oct-12 03:30N 34°57' W 007°19'  

Dump ship's entire track history